Time;durP1;ratioP1;P1;durP2;ratioP2;P2;SDS_P1;SDS_P2;PMS_P1;PMS_P2;Temp;Humidity;BMP_temperature;BMP_pressure;BME280_temperature;BME280_humidity;BME280_pressure;Samples;Min_cycle;Max_cycle;Signal;HPM_P1;HPM_P2
2022/03/08 00:01:00;;;;;;;9.15;4.13;;;3.00;99.90;;;;;;5022454;28;20043;-60
2022/03/08 00:03:26;;;;;;;7.00;3.22;;;2.90;99.90;;;;;;5021508;28;20056;-60
2022/03/08 00:05:52;;;;;;;7.20;3.55;;;2.90;99.90;;;;;;5021197;28;20057;-60
2022/03/08 00:08:18;;;;;;;7.50;3.55;;;2.90;99.90;;;;;;5022316;28;20041;-61
2022/03/08 00:10:43;;;;;;;8.52;3.88;;;2.90;99.90;;;;;;5019219;28;20034;-61
2022/03/08 00:13:09;;;;;;;9.68;3.70;;;2.90;99.90;;;;;;5023416;28;20117;-60
2022/03/08 00:15:35;;;;;;;6.10;3.92;;;2.90;99.90;;;;;;5022927;28;20048;-61
2022/03/08 00:18:00;;;;;;;6.65;2.90;;;2.80;99.90;;;;;;5019988;28;20026;-61
2022/03/08 00:20:26;;;;;;;10.32;3.88;;;2.80;99.90;;;;;;5023679;28;20045;-60
2022/03/08 00:22:52;;;;;;;8.85;3.80;;;2.70;99.90;;;;;;5020911;28;20077;-60
2022/03/08 00:25:18;;;;;;;7.05;3.42;;;2.70;99.90;;;;;;5021669;28;20034;-59
2022/03/08 00:27:47;;;;;;;6.93;3.15;;;2.60;99.90;;;;;;5019687;28;20041;-60
2022/03/08 00:30:18;;;;;;;7.20;3.40;;;2.60;99.90;;;;;;5022658;28;20033;-59
2022/03/08 00:32:45;;;;;;;8.90;3.90;;;2.60;99.90;;;;;;5021750;28;20041;-60
2022/03/08 00:35:11;;;;;;;8.60;3.90;;;2.60;99.90;;;;;;5019372;28;20030;-59
2022/03/08 00:37:37;;;;;;;9.35;3.92;;;2.60;99.90;;;;;;5020877;28;20097;-60
2022/03/08 00:40:06;;;;;;;8.70;3.22;;;2.60;99.90;;;;;;5019235;28;20057;-62
2022/03/08 00:42:32;;;;;;;7.80;4.07;;;2.60;99.90;;;;;;5021425;28;20033;-61
2022/03/08 00:44:57;;;;;;;13.63;4.20;;;2.60;99.90;;;;;;5021964;28;20026;-60
2022/03/08 00:47:23;;;;;;;9.32;3.00;;;2.60;99.90;;;;;;5020701;28;20033;-60
2022/03/08 00:49:48;;;;;;;8.93;3.85;;;2.60;99.90;;;;;;5020006;28;20034;-60
2022/03/08 00:52:14;;;;;;;7.95;3.30;;;2.60;99.90;;;;;;5021394;28;20713;-60
2022/03/08 00:54:40;;;;;;;6.80;3.00;;;2.60;99.90;;;;;;5019022;28;20026;-60
2022/03/08 00:57:06;;;;;;;6.30;3.08;;;2.60;99.90;;;;;;5022324;28;20449;-60
2022/03/08 00:59:32;;;;;;;6.47;2.97;;;2.50;99.90;;;;;;5018650;28;20409;-62
2022/03/08 01:01:57;;;;;;;8.80;3.42;;;2.60;99.90;;;;;;5021452;28;20041;-62
2022/03/08 01:04:23;;;;;;;6.50;3.15;;;2.60;99.90;;;;;;5019782;28;20485;-62
2022/03/08 01:06:48;;;;;;;9.55;3.35;;;2.60;99.90;;;;;;5019946;28;20048;-61
2022/03/08 01:09:14;;;;;;;7.13;3.38;;;2.60;99.90;;;;;;5021006;28;20038;-60
2022/03/08 01:11:41;;;;;;;5.43;3.08;;;2.50;99.90;;;;;;5018364;28;20037;-60
2022/03/08 01:14:08;;;;;;;6.20;2.67;;;2.60;99.90;;;;;;5053621;28;20029;-59
2022/03/08 01:16:35;;;;;;;8.10;3.42;;;2.50;99.90;;;;;;5018105;28;20092;-60
2022/03/08 01:19:01;;;;;;;6.95;2.38;;;2.60;99.90;;;;;;5020463;28;20044;-59
2022/03/08 01:21:27;;;;;;;7.47;3.25;;;2.60;99.90;;;;;;5018809;28;20029;-60
2022/03/08 01:23:52;;;;;;;4.80;2.78;;;2.70;99.90;;;;;;5020185;28;20029;-61
2022/03/08 01:26:18;;;;;;;5.50;2.67;;;2.70;99.90;;;;;;5020102;28;20124;-60
2022/03/08 01:28:44;;;;;;;5.25;2.45;;;2.70;99.90;;;;;;5019122;28;20034;-60
2022/03/08 01:31:10;;;;;;;4.13;2.00;;;2.70;99.90;;;;;;5020123;28;20397;-60
2022/03/08 01:33:36;;;;;;;4.47;2.50;;;2.70;99.90;;;;;;5018208;28;20409;-61
2022/03/08 01:36:02;;;;;;;5.70;2.25;;;2.70;99.90;;;;;;5018228;28;20041;-61
2022/03/08 01:38:27;;;;;;;4.85;2.28;;;2.70;99.90;;;;;;5021641;28;20044;-63
2022/03/08 01:40:55;;;;;;;4.97;2.33;;;2.70;99.90;;;;;;5018367;28;20025;-60
2022/03/08 01:43:20;;;;;;;7.30;2.80;;;2.80;99.90;;;;;;5019846;28;20044;-61
2022/03/08 01:45:46;;;;;;;8.77;3.08;;;2.80;99.90;;;;;;5019242;28;20033;-60
2022/03/08 01:48:12;;;;;;;5.88;2.92;;;2.70;99.90;;;;;;5022911;28;20025;-61
2022/03/08 01:50:37;;;;;;;6.85;3.25;;;2.70;99.90;;;;;;5022411;28;20061;-61
2022/03/08 01:53:03;;;;;;;4.75;2.53;;;2.70;99.90;;;;;;5022878;28;20037;-61
2022/03/08 01:55:29;;;;;;;6.32;2.35;;;2.70;99.90;;;;;;5019944;28;20036;-61
2022/03/08 01:57:55;;;;;;;7.38;2.83;;;2.70;99.90;;;;;;5020114;28;20029;-61
2022/03/08 02:00:24;;;;;;;7.22;2.90;;;2.70;99.90;;;;;;5021638;28;20025;-61
2022/03/08 02:02:50;;;;;;;5.47;2.42;;;2.60;99.90;;;;;;5018831;28;20044;-62
2022/03/08 02:05:16;;;;;;;5.10;2.40;;;2.60;99.90;;;;;;5020256;28;20038;-60
2022/03/08 02:07:42;;;;;;;8.23;2.47;;;2.50;99.90;;;;;;5020564;28;20108;-62
2022/03/08 02:10:09;;;;;;;6.20;2.28;;;2.50;99.90;;;;;;5018336;28;20042;-62
2022/03/08 02:12:34;;;;;;;6.00;2.55;;;2.50;99.90;;;;;;5020666;28;20030;-61
2022/03/08 02:15:30;;;;;;;7.93;2.83;;;2.60;99.90;;;;;;5017351;28;20120;-61
2022/03/08 02:17:59;;;;;;;8.85;2.75;;;2.50;99.90;;;;;;5018819;28;20033;-61
2022/03/08 02:20:25;;;;;;;6.07;2.50;;;2.50;99.90;;;;;;5019151;28;20029;-61
2022/03/08 02:22:51;;;;;;;5.50;2.42;;;2.50;99.90;;;;;;5018077;28;20037;-60
2022/03/08 02:25:19;;;;;;;5.45;2.70;;;2.50;99.90;;;;;;5019674;28;20038;-62
2022/03/08 02:27:47;;;;;;;5.03;2.03;;;2.40;99.90;;;;;;5018982;28;20129;-61
2022/03/08 02:30:14;;;;;;;7.90;3.40;;;2.40;99.90;;;;;;5018688;28;20037;-61
2022/03/08 02:32:41;;;;;;;6.07;2.53;;;2.30;99.90;;;;;;5019478;28;20481;-61
2022/03/08 02:35:16;;;;;;;4.45;2.35;;;2.20;99.90;;;;;;5018360;28;20034;-60
2022/03/08 02:37:45;;;;;;;8.68;2.20;;;2.20;99.90;;;;;;5019048;28;20041;-60
2022/03/08 02:40:12;;;;;;;7.60;2.67;;;2.20;99.90;;;;;;5025520;28;20033;-60
2022/03/08 02:42:38;;;;;;;6.22;2.75;;;2.20;99.90;;;;;;5036191;28;20507;-61
2022/03/08 02:45:06;;;;;;;5.82;2.58;;;2.20;99.90;;;;;;5025441;28;20032;-61
2022/03/08 02:47:32;;;;;;;5.05;2.83;;;2.20;99.90;;;;;;5027836;28;20044;-61
2022/03/08 02:49:58;;;;;;;7.53;2.40;;;2.20;99.90;;;;;;5024338;28;20026;-61
2022/03/08 02:52:24;;;;;;;5.65;2.67;;;2.10;99.90;;;;;;5021592;28;20542;-62
2022/03/08 02:54:49;;;;;;;8.90;2.80;;;2.10;99.90;;;;;;5023461;28;20038;-61
2022/03/08 02:57:15;;;;;;;4.57;2.60;;;2.20;99.90;;;;;;5022773;28;20550;-61
2022/03/08 02:59:41;;;;;;;5.00;2.50;;;2.10;99.90;;;;;;5022262;28;20038;-63
2022/03/08 03:02:06;;;;;;;6.05;2.75;;;2.10;99.90;;;;;;5023668;28;20073;-60
2022/03/08 03:04:32;;;;;;;5.90;2.70;;;2.00;99.90;;;;;;5020684;28;20042;-61
2022/03/08 03:06:58;;;;;;;5.50;2.85;;;2.10;99.90;;;;;;5021250;28;20041;-61
2022/03/08 03:09:24;;;;;;;6.70;2.88;;;2.10;99.90;;;;;;5024344;28;20042;-61
2022/03/08 03:11:50;;;;;;;8.23;2.88;;;2.10;99.90;;;;;;5020728;28;20057;-61
2022/03/08 03:14:15;;;;;;;4.45;2.50;;;2.00;99.90;;;;;;5023229;28;20040;-62
2022/03/08 03:16:41;;;;;;;7.20;2.33;;;2.10;99.90;;;;;;5022332;28;20103;-61
2022/03/08 03:19:07;;;;;;;5.22;2.70;;;2.10;99.90;;;;;;5019333;28;20057;-60
2022/03/08 03:21:32;;;;;;;4.53;2.45;;;2.00;99.90;;;;;;5020559;28;20033;-62
2022/03/08 03:23:58;;;;;;;6.10;2.90;;;1.90;99.90;;;;;;5022711;28;20495;-61
2022/03/08 03:26:23;;;;;;;6.90;3.15;;;2.00;99.90;;;;;;5020907;28;20048;-60
2022/03/08 03:28:49;;;;;;;5.97;2.38;;;1.90;99.90;;;;;;5021760;28;20083;-61
2022/03/08 03:31:15;;;;;;;6.65;2.58;;;1.90;99.90;;;;;;5020940;28;20107;-61
2022/03/08 03:33:41;;;;;;;5.38;2.75;;;1.80;99.90;;;;;;5021989;28;20049;-60
2022/03/08 03:36:07;;;;;;;9.13;3.35;;;1.80;99.90;;;;;;5037930;28;20041;-61
2022/03/08 03:38:32;;;;;;;5.95;2.90;;;1.80;99.90;;;;;;5020586;28;20042;-65
2022/03/08 03:40:58;;;;;;;5.82;2.72;;;1.80;99.90;;;;;;5023709;28;20533;-62
2022/03/08 03:43:23;;;;;;;5.22;2.63;;;1.80;99.90;;;;;;5019964;28;20041;-62
2022/03/08 03:45:49;;;;;;;5.35;2.30;;;1.80;99.90;;;;;;5020027;28;20133;-60
2022/03/08 03:48:14;;;;;;;5.53;2.83;;;1.80;99.90;;;;;;5022707;28;20038;-61
2022/03/08 03:50:41;;;;;;;6.28;2.65;;;1.80;99.90;;;;;;5021151;28;20072;-61
2022/03/08 03:53:08;;;;;;;7.95;2.42;;;1.80;99.90;;;;;;5021099;28;20030;-61
2022/03/08 03:55:33;;;;;;;4.93;2.67;;;1.70;99.90;;;;;;5022376;28;20037;-61
2022/03/08 03:57:59;;;;;;;6.38;3.42;;;1.80;99.90;;;;;;5020388;28;20529;-61
2022/03/08 04:00:25;;;;;;;6.80;2.92;;;1.70;99.90;;;;;;5023125;28;20041;-61
2022/03/08 04:02:50;;;;;;;6.00;2.58;;;1.70;99.90;;;;;;5019841;28;20065;-61
2022/03/08 04:05:16;;;;;;;9.77;3.00;;;1.70;99.90;;;;;;5024247;28;20038;-60
2022/03/08 04:07:42;;;;;;;7.63;2.83;;;1.70;99.90;;;;;;5020373;28;20034;-61
2022/03/08 04:10:09;;;;;;;8.07;3.05;;;1.70;99.90;;;;;;5021715;28;20049;-60
2022/03/08 04:12:35;;;;;;;5.22;2.85;;;1.70;99.90;;;;;;5019320;28;20034;-60
2022/03/08 04:15:01;;;;;;;6.03;2.70;;;1.70;99.90;;;;;;5054195;28;20084;-60
2022/03/08 04:17:27;;;;;;;16.25;3.10;;;1.70;99.90;;;;;;5020282;28;20120;-62
2022/03/08 04:19:52;;;;;;;10.07;2.60;;;1.70;99.90;;;;;;5023425;28;20116;-61
2022/03/08 04:22:18;;;;;;;6.80;2.70;;;1.70;99.90;;;;;;5019964;28;20121;-62
2022/03/08 04:24:43;;;;;;;6.40;2.25;;;1.70;99.90;;;;;;5022138;28;20513;-60
2022/03/08 04:27:09;;;;;;;6.07;2.80;;;1.70;99.90;;;;;;5023305;28;20034;-61
2022/03/08 04:29:35;;;;;;;12.35;3.03;;;1.60;99.90;;;;;;5020502;28;20542;-61
2022/03/08 04:32:00;;;;;;;5.07;2.75;;;1.60;99.90;;;;;;5019963;28;20030;-62
2022/03/08 04:34:26;;;;;;;5.40;2.20;;;1.70;99.90;;;;;;5022873;28;20106;-61
2022/03/08 04:36:52;;;;;;;6.85;2.88;;;1.60;99.90;;;;;;5017674;28;20042;-61
2022/03/08 04:39:17;;;;;;;5.07;2.50;;;1.70;99.90;;;;;;5022626;28;20038;-63
2022/03/08 04:41:43;;;;;;;8.38;2.53;;;1.80;99.90;;;;;;5021133;28;20042;-62
2022/03/08 04:44:08;;;;;;;5.65;2.10;;;1.70;99.90;;;;;;5024871;28;20618;-61
2022/03/08 04:46:34;;;;;;;3.60;1.77;;;1.70;99.90;;;;;;5020323;28;20053;-62
2022/03/08 04:49:00;;;;;;;8.48;2.50;;;1.70;99.90;;;;;;5021913;28;20037;-62
2022/03/08 04:51:25;;;;;;;5.75;2.20;;;1.70;99.90;;;;;;5018983;28;20052;-62
2022/03/08 04:53:51;;;;;;;4.68;2.33;;;1.60;99.90;;;;;;5022542;28;20030;-61
2022/03/08 04:56:18;;;;;;;5.93;2.58;;;1.60;99.90;;;;;;5019600;28;20057;-62
2022/03/08 04:58:44;;;;;;;4.78;2.53;;;1.60;99.90;;;;;;5022119;28;20490;-60
2022/03/08 05:01:10;;;;;;;6.07;2.20;;;1.50;99.90;;;;;;5019328;28;20151;-60
2022/03/08 05:03:36;;;;;;;4.95;2.72;;;1.60;99.90;;;;;;5053814;28;20482;-61
2022/03/08 05:06:02;;;;;;;4.95;2.13;;;1.60;99.90;;;;;;5025556;28;20048;-60
2022/03/08 05:08:28;;;;;;;4.60;2.22;;;1.50;99.90;;;;;;5023221;28;20037;-61
2022/03/08 05:10:53;;;;;;;10.68;2.45;;;1.50;99.90;;;;;;5021749;28;20061;-63
2022/03/08 05:13:19;;;;;;;5.03;2.78;;;1.60;99.90;;;;;;5021030;28;20068;-62
2022/03/08 05:15:48;;;;;;;4.78;2.15;;;1.60;99.90;;;;;;5018673;28;20129;-60
2022/03/08 05:18:15;;;;;;;6.25;3.33;;;1.50;99.90;;;;;;5021686;28;20036;-61
2022/03/08 05:20:40;;;;;;;6.40;1.75;;;1.60;99.90;;;;;;5018756;28;20083;-62
2022/03/08 05:23:06;;;;;;;5.68;2.20;;;1.60;99.90;;;;;;5020219;28;20046;-62
2022/03/08 05:25:31;;;;;;;5.00;2.53;;;1.50;99.90;;;;;;5020511;28;20048;-61
2022/03/08 05:27:57;;;;;;;4.15;2.53;;;1.50;99.90;;;;;;5018987;28;20057;-60
2022/03/08 05:30:23;;;;;;;5.55;2.20;;;1.50;99.90;;;;;;5017964;28;20743;-61
2022/03/08 05:32:49;;;;;;;4.88;2.13;;;1.50;99.90;;;;;;5020551;28;20044;-62
2022/03/08 05:35:15;;;;;;;4.97;2.25;;;1.50;99.90;;;;;;5018817;28;20504;-62
2022/03/08 05:37:40;;;;;;;4.85;2.28;;;1.60;99.90;;;;;;5019884;28;20030;-61
2022/03/08 05:40:07;;;;;;;4.32;2.28;;;1.50;99.90;;;;;;5019025;28;20105;-61
2022/03/08 05:42:33;;;;;;;4.57;2.50;;;1.50;99.90;;;;;;5021537;28;20120;-61
2022/03/08 05:44:58;;;;;;;8.13;2.25;;;1.50;99.90;;;;;;5021145;28;20140;-60
2022/03/08 05:47:24;;;;;;;7.82;2.20;;;1.50;99.90;;;;;;5018293;28;20033;-61
2022/03/08 05:49:49;;;;;;;3.35;1.88;;;1.50;99.90;;;;;;5016114;28;20549;-61
2022/03/08 05:52:15;;;;;;;7.60;2.72;;;1.50;99.90;;;;;;5012684;28;20036;-60
2022/03/08 05:54:41;;;;;;;4.63;2.38;;;1.40;99.90;;;;;;5028187;28;20117;-60
2022/03/08 05:57:06;;;;;;;5.32;2.03;;;1.40;99.90;;;;;;5021793;28;20524;-61
2022/03/08 05:59:32;;;;;;;6.43;3.15;;;1.40;99.90;;;;;;5021069;28;20116;-61
2022/03/08 06:01:57;;;;;;;6.65;2.42;;;1.40;99.90;;;;;;5023330;28;20032;-60
2022/03/08 06:04:23;;;;;;;5.95;2.00;;;1.40;99.90;;;;;;5021196;28;20079;-61
2022/03/08 06:06:50;;;;;;;6.65;2.58;;;1.40;99.90;;;;;;5019289;28;20058;-61
2022/03/08 06:09:16;;;;;;;7.15;2.70;;;1.40;99.90;;;;;;5023040;28;20103;-61
2022/03/08 06:11:42;;;;;;;8.10;2.60;;;1.30;99.90;;;;;;5024150;28;20451;-61
2022/03/08 06:14:08;;;;;;;3.97;2.08;;;1.30;99.90;;;;;;5024433;28;20041;-61
2022/03/08 06:16:33;;;;;;;4.78;2.30;;;1.30;99.90;;;;;;5027503;28;20040;-61
2022/03/08 06:18:59;;;;;;;9.52;2.80;;;1.30;99.90;;;;;;5025518;28;20037;-62
2022/03/08 06:21:25;;;;;;;7.60;1.80;;;1.30;99.90;;;;;;5027191;28;20033;-62
2022/03/08 06:23:51;;;;;;;9.05;2.53;;;1.40;99.90;;;;;;5023869;28;20121;-61
2022/03/08 06:26:17;;;;;;;3.80;1.73;;;1.50;99.90;;;;;;5027854;28;20739;-61
2022/03/08 06:28:43;;;;;;;4.68;2.25;;;1.50;99.90;;;;;;5026089;28;20087;-60
2022/03/08 06:31:09;;;;;;;5.70;2.33;;;1.50;99.90;;;;;;5026426;28;20132;-60
2022/03/08 06:33:34;;;;;;;5.95;2.60;;;1.60;99.90;;;;;;5027271;28;20037;-64
2022/03/08 06:36:00;;;;;;;2.95;2.15;;;1.60;99.90;;;;;;5026389;28;20172;-60
2022/03/08 06:38:26;;;;;;;6.70;2.38;;;1.60;99.90;;;;;;5025558;28;20174;-60
2022/03/08 06:40:51;;;;;;;6.68;1.90;;;1.70;99.90;;;;;;5026703;28;20044;-61
2022/03/08 06:43:17;;;;;;;4.25;2.38;;;1.80;99.90;;;;;;5027642;28;20036;-60
2022/03/08 06:45:43;;;;;;;4.85;2.25;;;1.70;99.90;;;;;;5025520;28;20037;-60
2022/03/08 06:48:10;;;;;;;8.13;1.92;;;1.80;99.90;;;;;;5027856;28;20040;-61
2022/03/08 06:50:36;;;;;;;5.53;2.65;;;1.80;99.90;;;;;;5034223;28;20513;-61
2022/03/08 06:53:01;;;;;;;7.53;2.70;;;1.80;99.90;;;;;;5025139;28;20033;-61
2022/03/08 06:55:27;;;;;;;4.93;2.35;;;1.80;99.90;;;;;;5026157;28;20037;-61
2022/03/08 06:57:52;;;;;;;5.50;2.40;;;1.80;99.90;;;;;;5024162;28;20040;-60
2022/03/08 07:00:20;;;;;;;4.72;2.08;;;1.80;99.90;;;;;;5026462;28;20107;-61
2022/03/08 07:02:45;;;;;;;4.03;2.28;;;1.90;99.90;;;;;;5023245;28;20034;-61
2022/03/08 07:05:11;;;;;;;5.70;3.30;;;1.90;99.90;;;;;;5021734;28;20037;-63
2022/03/08 07:07:38;;;;;;;5.45;2.10;;;1.90;99.90;;;;;;5021193;28;20827;-62
2022/03/08 07:10:05;;;;;;;4.60;2.30;;;2.00;99.90;;;;;;5024308;28;20026;-61
2022/03/08 07:12:30;;;;;;;3.92;2.03;;;2.00;99.90;;;;;;5027094;28;20463;-63
2022/03/08 07:14:56;;;;;;;6.35;2.38;;;2.00;99.90;;;;;;5025830;28;20057;-61
2022/03/08 07:17:21;;;;;;;5.47;2.78;;;2.10;99.90;;;;;;5027612;28;20128;-61
2022/03/08 07:19:47;;;;;;;8.32;2.80;;;2.10;99.90;;;;;;5025381;28;20393;-63
2022/03/08 07:22:15;;;;;;;9.02;2.55;;;2.20;99.90;;;;;;5027053;28;20060;-61
2022/03/08 07:24:41;;;;;;;9.32;2.30;;;2.30;99.90;;;;;;5025114;28;20441;-61
2022/03/08 07:27:08;;;;;;;6.47;2.47;;;2.40;99.90;;;;;;5027933;28;20080;-61
2022/03/08 07:29:34;;;;;;;6.00;2.50;;;2.50;99.90;;;;;;5029218;28;20048;-61
2022/03/08 07:32:00;;;;;;;4.90;2.30;;;2.60;99.90;;;;;;5029500;28;20060;-62
2022/03/08 07:34:25;;;;;;;6.60;2.58;;;2.80;99.90;;;;;;5029328;28;20658;-61
2022/03/08 07:36:51;;;;;;;4.20;2.45;;;2.80;99.90;;;;;;5029974;28;20037;-62
2022/03/08 07:39:17;;;;;;;6.25;3.17;;;2.90;99.90;;;;;;5029423;28;20124;-63
2022/03/08 07:41:42;;;;;;;5.68;2.40;;;3.10;99.90;;;;;;5029336;28;20408;-62
2022/03/08 07:44:08;;;;;;;8.52;2.80;;;3.20;99.90;;;;;;5028310;28;20040;-62
2022/03/08 07:46:34;;;;;;;6.55;2.35;;;3.40;99.90;;;;;;5027859;28;20571;-61
2022/03/08 07:48:59;;;;;;;6.00;2.50;;;3.50;99.90;;;;;;5028136;28;20068;-61
2022/03/08 07:51:25;;;;;;;5.25;2.30;;;3.60;99.90;;;;;;5028480;28;20127;-62
2022/03/08 07:53:51;;;;;;;5.95;2.90;;;3.80;99.90;;;;;;5029082;28;20033;-61
2022/03/08 07:56:17;;;;;;;5.95;2.55;;;4.10;99.90;;;;;;5029610;28;20501;-63
2022/03/08 07:58:42;;;;;;;6.03;1.90;;;4.30;99.90;;;;;;5026210;28;20030;-61
2022/03/08 08:01:08;;;;;;;6.70;2.17;;;4.40;99.90;;;;;;5029823;28;20040;-61
2022/03/08 08:03:33;;;;;;;6.63;2.88;;;4.40;99.40;;;;;;5029735;28;20033;-61
2022/03/08 08:06:02;;;;;;;4.05;2.13;;;4.40;99.10;;;;;;5027419;28;20057;-62
2022/03/08 08:08:27;;;;;;;7.70;2.13;;;4.40;98.90;;;;;;5029937;28;20038;-63
2022/03/08 08:10:53;;;;;;;10.73;2.85;;;4.50;99.00;;;;;;5027358;28;20041;-61
2022/03/08 08:13:18;;;;;;;4.72;2.35;;;4.50;99.20;;;;;;5027865;28;20485;-61
2022/03/08 08:15:44;;;;;;;8.95;2.65;;;4.60;98.70;;;;;;5027721;28;20041;-61
2022/03/08 08:18:09;;;;;;;11.52;2.85;;;4.70;98.80;;;;;;5029999;28;20029;-62
2022/03/08 08:20:35;;;;;;;3.97;2.25;;;4.70;98.60;;;;;;5027857;28;20033;-67
2022/03/08 08:23:00;;;;;;;8.38;2.55;;;4.80;98.00;;;;;;5029419;28;20539;-62
2022/03/08 08:25:26;;;;;;;7.68;2.03;;;4.80;97.70;;;;;;5028919;28;20040;-63
2022/03/08 08:27:52;;;;;;;3.67;2.20;;;4.90;97.40;;;;;;5028184;28;20044;-61
2022/03/08 08:30:18;;;;;;;6.55;2.25;;;4.90;96.70;;;;;;5028261;28;20064;-63
2022/03/08 08:32:44;;;;;;;4.50;2.13;;;5.00;97.70;;;;;;5028703;28;20401;-64
2022/03/08 08:35:11;;;;;;;10.20;2.70;;;5.10;97.20;;;;;;5028980;28;20029;-62
2022/03/08 08:37:36;;;;;;;4.78;2.35;;;5.20;95.80;;;;;;5028238;28;20171;-61
2022/03/08 08:40:04;;;;;;;6.35;2.55;;;5.30;95.90;;;;;;5029090;28;20114;-63
2022/03/08 08:42:29;;;;;;;6.85;2.88;;;5.40;95.90;;;;;;5029236;28;20386;-64
2022/03/08 08:44:55;;;;;;;6.65;2.90;;;5.50;94.90;;;;;;5027900;28;20045;-62
2022/03/08 08:47:21;;;;;;;4.68;2.20;;;5.50;94.80;;;;;;5029519;28;20045;-61
2022/03/08 08:49:46;;;;;;;4.50;2.10;;;5.60;94.10;;;;;;5028941;28;20491;-62
2022/03/08 08:52:12;;;;;;;4.72;2.50;;;5.70;94.50;;;;;;5029675;28;20041;-62
2022/03/08 08:54:38;;;;;;;5.43;2.42;;;5.70;93.60;;;;;;5031325;28;20041;-64
2022/03/08 08:57:04;;;;;;;9.23;3.30;;;5.80;94.30;;;;;;5029093;28;20038;-61
2022/03/08 08:59:29;;;;;;;7.10;2.13;;;6.00;93.70;;;;;;5029964;28;20045;-61
2022/03/08 09:01:55;;;;;;;3.17;1.90;;;6.00;92.30;;;;;;5028483;28;21186;-63
2022/03/08 09:04:20;;;;;;;4.72;2.22;;;6.00;93.30;;;;;;5029687;28;20076;-61
2022/03/08 09:06:47;;;;;;;7.60;2.33;;;6.10;91.90;;;;;;5028648;28;20106;-62
2022/03/08 09:09:12;;;;;;;4.32;2.03;;;6.20;92.10;;;;;;5027534;28;20139;-62
2022/03/08 09:11:38;;;;;;;3.45;1.95;;;6.20;91.50;;;;;;5027857;28;20195;-62
2022/03/08 09:14:04;;;;;;;9.35;2.45;;;6.30;90.50;;;;;;5029254;28;20034;-63
2022/03/08 09:16:30;;;;;;;5.30;2.40;;;6.40;90.40;;;;;;5028709;28;20045;-62
2022/03/08 09:18:56;;;;;;;11.68;2.10;;;6.50;90.00;;;;;;5028596;28;20044;-61
2022/03/08 09:21:22;;;;;;;4.07;2.47;;;6.50;90.10;;;;;;5028559;28;20516;-61
2022/03/08 09:23:47;;;;;;;5.35;1.90;;;6.60;89.10;;;;;;5027189;28;20037;-61
2022/03/08 09:26:13;;;;;;;7.28;2.20;;;6.60;88.30;;;;;;5028600;28;20116;-61
2022/03/08 09:28:38;;;;;;;4.88;2.00;;;6.70;88.00;;;;;;5029457;28;20555;-60
2022/03/08 09:31:04;;;;;;;10.00;3.00;;;6.70;88.10;;;;;;5027192;28;20374;-60
2022/03/08 09:33:30;;;;;;;2.90;1.90;;;6.60;90.00;;;;;;5028393;28;20174;-62
2022/03/08 09:35:55;;;;;;;6.15;2.20;;;6.70;89.80;;;;;;5025947;28;21152;-61
2022/03/08 09:38:21;;;;;;;5.95;2.65;;;6.80;88.00;;;;;;5028414;28;20041;-61
2022/03/08 09:40:50;;;;;;;11.13;2.20;;;6.80;87.80;;;;;;5027743;28;20045;-60
2022/03/08 09:43:17;;;;;;;3.85;2.10;;;6.80;87.30;;;;;;5026628;28;20037;-61
2022/03/08 09:45:43;;;;;;;5.43;2.05;;;6.80;86.10;;;;;;5027760;28;20037;-61
2022/03/08 09:48:09;;;;;;;6.20;2.55;;;6.80;86.10;;;;;;5026522;28;20033;-60
2022/03/08 09:50:35;;;;;;;4.88;2.42;;;6.80;85.10;;;;;;5026909;28;20030;-61
2022/03/08 09:53:02;;;;;;;9.13;2.10;;;6.90;86.60;;;;;;5027361;28;20367;-61
2022/03/08 09:55:28;;;;;;;13.65;2.28;;;6.90;85.80;;;;;;5028137;28;20029;-61
2022/03/08 09:57:54;;;;;;;4.63;1.98;;;7.00;87.20;;;;;;5028974;28;20481;-62
2022/03/08 10:00:23;;;;;;;8.93;2.38;;;7.10;84.80;;;;;;5027739;28;20037;-61
2022/03/08 10:02:52;;;;;;;6.47;2.15;;;7.10;84.50;;;;;;5027454;28;20052;-62
2022/03/08 10:05:40;;;;;;;7.07;3.00;;;7.10;84.00;;;;;;5027460;28;20040;-62
2022/03/08 10:08:10;;;;;;;8.43;2.88;;;7.20;85.00;;;;;;5024311;28;20033;-60
2022/03/08 10:10:45;;;;;;;19.95;2.85;;;7.20;82.80;;;;;;5026852;28;20033;-61
2022/03/08 10:13:12;;;;;;;4.07;1.95;;;7.20;83.50;;;;;;5027230;28;20116;-61
2022/03/08 10:15:38;;;;;;;8.00;3.08;;;7.30;82.80;;;;;;5027134;28;20489;-61
2022/03/08 10:18:03;;;;;;;2.75;1.92;;;7.30;82.00;;;;;;5027107;28;20060;-61
2022/03/08 10:20:31;;;;;;;3.55;2.10;;;7.20;81.80;;;;;;5026073;28;20029;-60
2022/03/08 10:22:57;;;;;;;5.28;2.63;;;7.20;81.30;;;;;;5027096;28;20037;-60
2022/03/08 10:25:25;;;;;;;3.45;1.80;;;7.20;80.80;;;;;;5027978;28;20056;-61
2022/03/08 10:27:54;;;;;;;5.43;2.03;;;7.20;81.20;;;;;;5027959;28;20037;-61
2022/03/08 10:30:40;;;;;;;7.50;2.17;;;7.30;81.50;;;;;;5027445;28;20052;-61
2022/03/08 10:33:06;;;;;;;4.60;2.40;;;7.40;81.60;;;;;;5025115;28;20570;-60
2022/03/08 10:35:37;;;;;;;5.10;1.88;;;7.40;78.90;;;;;;5028769;28;20105;-61
2022/03/08 10:38:08;;;;;;;3.13;1.70;;;7.50;77.90;;;;;;5026237;28;20066;-61
2022/03/08 10:40:35;;;;;;;4.90;2.28;;;7.50;77.10;;;;;;5025603;28;20034;-61
2022/03/08 10:43:08;;;;;;;5.03;2.17;;;7.50;77.80;;;;;;5027210;28;20034;-61
2022/03/08 10:45:36;;;;;;;7.15;3.10;;;7.50;77.10;;;;;;5027056;28;20033;-60
2022/03/08 10:48:06;;;;;;;5.00;2.15;;;7.60;78.20;;;;;;5028035;28;20485;-60
2022/03/08 10:50:34;;;;;;;;;;;7.70;76.40;;;;;;5025562;28;20025;-61
2022/03/08 10:53:01;;;;;;;4.55;1.80;;;7.80;74.80;;;;;;5025984;28;20369;-60
2022/03/08 10:55:32;;;;;;;7.95;2.05;;;7.70;73.90;;;;;;5027780;28;20037;-60
2022/03/08 10:58:09;;;;;;;4.53;1.77;;;7.70;74.10;;;;;;5025904;28;20083;-60
2022/03/08 11:00:39;;;;;;;4.50;1.75;;;7.80;73.20;;;;;;5027793;28;20025;-62
2022/03/08 11:03:06;;;;;;;;;;;7.80;74.50;;;;;;5029439;28;20485;-61
2022/03/08 11:05:35;;;;;;;7.28;2.15;;;7.90;73.00;;;;;;5027701;28;20379;-62
2022/03/08 11:08:00;;;;;;;5.85;2.22;;;8.00;71.40;;;;;;5036466;28;20029;-61
2022/03/08 11:10:28;;;;;;;21.70;2.10;;;8.00;71.00;;;;;;5029980;28;20044;-60
2022/03/08 11:12:56;;;;;;;5.25;1.70;;;8.10;71.30;;;;;;5029966;28;20033;-62
2022/03/08 11:15:22;;;;;;;5.10;1.63;;;8.10;71.40;;;;;;5030083;28;20080;-60
2022/03/08 11:17:50;;;;;;;4.25;1.80;;;8.20;71.30;;;;;;5029747;28;20025;-60
2022/03/08 11:20:18;;;;;;;4.70;2.15;;;8.20;70.90;;;;;;5033558;28;20076;-60
2022/03/08 11:22:45;;;;;;;4.97;1.60;;;8.30;69.90;;;;;;5044790;28;20041;-61
2022/03/08 11:25:16;;;;;;;8.05;2.00;;;8.30;70.90;;;;;;5033598;28;20034;-62
2022/03/08 11:27:43;;;;;;;5.13;2.00;;;8.50;69.90;;;;;;5034206;28;20037;-63
2022/03/08 11:30:12;;;;;;;3.53;1.70;;;8.50;70.20;;;;;;5031812;28;20040;-61
2022/03/08 11:32:52;;;;;;;4.07;1.73;;;8.60;69.60;;;;;;5032401;28;20047;-63
2022/03/08 11:35:36;;;;;;;7.40;2.50;;;8.60;66.90;;;;;;5032094;28;20029;-61
2022/03/08 11:38:04;;;;;;;4.25;1.83;;;8.60;68.00;;;;;;5032815;28;20029;-62
2022/03/08 11:40:33;;;;;;;3.35;1.90;;;8.60;67.70;;;;;;5031539;28;20072;-60
2022/03/08 11:43:04;;;;;;;6.15;2.50;;;8.60;67.70;;;;;;5028220;28;20478;-62
2022/03/08 11:45:31;;;;;;;5.40;1.75;;;8.60;65.90;;;;;;5029609;28;20072;-60
2022/03/08 11:47:59;;;;;;;6.00;1.60;;;8.60;65.90;;;;;;5031332;28;20082;-63
2022/03/08 11:50:36;;;;;;;4.53;2.33;;;8.70;66.40;;;;;;5030856;28;20045;-61
2022/03/08 11:53:08;;;;;;;3.50;1.77;;;8.60;64.90;;;;;;5031020;28;20036;-61
2022/03/08 11:55:48;;;;;;;10.23;1.70;;;8.70;66.40;;;;;;5032411;28;20544;-61
2022/03/08 11:58:20;;;;;;;4.97;1.73;;;8.80;65.10;;;;;;5033204;28;20068;-61
2022/03/08 12:00:55;;;;;;;4.80;1.75;;;8.90;66.30;;;;;;5033414;28;20516;-61
2022/03/08 12:03:24;;;;;;;9.13;1.75;;;8.90;63.70;;;;;;5033125;28;20041;-61
2022/03/08 12:06:09;;;;;;;7.55;1.65;;;8.90;63.60;;;;;;5033549;28;20041;-61
2022/03/08 12:08:38;;;;;;;3.80;1.58;;;8.80;63.50;;;;;;5034234;28;20045;-63
2022/03/08 12:11:27;;;;;;;4.32;1.67;;;8.80;64.80;;;;;;5029034;28;20033;-60
2022/03/08 12:14:07;;;;;;;6.07;1.67;;;8.90;64.00;;;;;;5039312;28;20112;-60
2022/03/08 12:16:33;;;;;;;4.18;1.52;;;8.90;63.50;;;;;;5030123;28;20083;-62
2022/03/08 12:19:01;;;;;;;4.03;1.65;;;9.00;64.30;;;;;;5029733;28;20037;-63
2022/03/08 12:21:29;;;;;;;2.10;1.30;;;9.10;64.40;;;;;;5029849;28;20057;-61
2022/03/08 12:23:58;;;;;;;3.70;1.80;;;9.10;62.90;;;;;;5025913;28;20485;-60
2022/03/08 12:26:29;;;;;;;5.03;2.20;;;9.10;63.10;;;;;;5028550;28;20048;-60
2022/03/08 12:29:10;;;;;;;6.75;1.50;;;9.00;63.60;;;;;;5028824;28;20040;-65
2022/03/08 12:32:04;;;;;;;4.28;2.42;;;9.10;62.90;;;;;;5027901;28;20067;-61
2022/03/08 12:34:33;;;;;;;5.85;1.85;;;9.20;62.80;;;;;;5026644;28;20482;-60
2022/03/08 12:37:30;;;;;;;7.55;1.77;;;9.20;62.90;;;;;;5029261;28;20055;-60
2022/03/08 12:40:10;;;;;;;6.00;2.65;;;9.20;62.80;;;;;;5027809;28;20087;-60
2022/03/08 12:42:44;;;;;;;6.13;1.83;;;9.20;63.40;;;;;;5040415;28;20048;-60
2022/03/08 12:45:11;;;;;;;5.85;1.83;;;9.20;62.60;;;;;;5029191;28;20041;-61
2022/03/08 12:47:46;;;;;;;3.28;1.58;;;9.20;63.90;;;;;;5029435;28;20564;-61
2022/03/08 12:50:17;;;;;;;5.15;1.63;;;9.20;63.60;;;;;;5028681;28;20482;-60
2022/03/08 12:52:53;;;;;;;2.75;1.80;;;9.20;62.20;;;;;;5028593;28;20041;-61
2022/03/08 12:55:32;;;;;;;5.55;2.47;;;9.30;62.80;;;;;;5027906;28;20140;-60
2022/03/08 12:57:58;;;;;;;14.38;2.22;;;9.40;63.50;;;;;;5038146;28;20437;-62